Terminal Aerodrome Forecast
Issued by NWS

Home | Current Version | Previous Version | Text Only | Print | Product List | Glossary On
Versions: 1 2 3 4 5 6 7 8 9 10 11 12 13 14 15 16 17 18 19 20 21 22 23 24 25 26 27 28 29 30
000
FTAK31 PAFA 282334
TAFATA
TAF
PATA 282334Z 2900/2924 08005KT P6SM -SHRA SCT011 BKN019 OVC035
     FM290600 24004KT 6SM -SHRA BKN015 OVC025
     FM291400 VRB03KT 3SM BR BKN015
     FM291800 26007KT 1 1/2SM BR BKN050
     FM292100 28008KT P6SM BKN250=

USA.gov is the U.S. government's official web portal to all federal, state and local government web resources and services.